sensor_id;sensor_type;location;lat;lon;timestamp;temperature;humidity
1083;DHT22;530;51.448;7.238;2023-07-28T00:00:37;17.30;99.90
1083;DHT22;530;51.448;7.238;2023-07-28T00:03:03;17.30;99.90
1083;DHT22;530;51.448;7.238;2023-07-28T00:05:28;17.20;99.90
1083;DHT22;530;51.448;7.238;2023-07-28T00:07:54;17.30;99.90
1083;DHT22;530;51.448;7.238;2023-07-28T00:10:20;17.30;99.90
1083;DHT22;530;51.448;7.238;2023-07-28T00:12:45;17.30;99.90
1083;DHT22;530;51.448;7.238;2023-07-28T00:15:11;17.30;99.90
1083;DHT22;530;51.448;7.238;2023-07-28T00:17:37;17.30;99.90
1083;DHT22;530;51.448;7.238;2023-07-28T00:20:03;17.30;99.90
1083;DHT22;530;51.448;7.238;2023-07-28T00:22:28;17.30;99.90
1083;DHT22;530;51.448;7.238;2023-07-28T00:24:54;17.20;99.90
1083;DHT22;530;51.448;7.238;2023-07-28T00:27:20;17.20;99.90
1083;DHT22;530;51.448;7.238;2023-07-28T00:29:46;17.20;99.90
1083;DHT22;530;51.448;7.238;2023-07-28T00:32:11;17.20;99.90
1083;DHT22;530;51.448;7.238;2023-07-28T00:34:37;17.20;99.90
1083;DHT22;530;51.448;7.238;2023-07-28T00:37:03;17.20;99.90
1083;DHT22;530;51.448;7.238;2023-07-28T00:39:28;17.20;99.90
1083;DHT22;530;51.448;7.238;2023-07-28T00:41:54;17.20;99.90
1083;DHT22;530;51.448;7.238;2023-07-28T00:44:20;17.20;99.90
1083;DHT22;530;51.448;7.238;2023-07-28T00:46:45;17.10;99.90
1083;DHT22;530;51.448;7.238;2023-07-28T00:49:11;17.20;99.90
1083;DHT22;530;51.448;7.238;2023-07-28T00:51:37;17.20;99.90
1083;DHT22;530;51.448;7.238;2023-07-28T00:54:06;17.20;99.90
1083;DHT22;530;51.448;7.238;2023-07-28T00:56:32;17.30;99.90
1083;DHT22;530;51.448;7.238;2023-07-28T00:58:58;17.30;99.90
1083;DHT22;530;51.448;7.238;2023-07-28T01:01:24;17.30;99.90
1083;DHT22;530;51.448;7.238;2023-07-28T01:03:50;17.20;99.90
1083;DHT22;530;51.448;7.238;2023-07-28T01:09:20;17.20;99.90
1083;DHT22;530;51.448;7.238;2023-07-28T01:11:57;17.20;99.90
1083;DHT22;530;51.448;7.238;2023-07-28T01:14:23;17.20;99.90
1083;DHT22;530;51.448;7.238;2023-07-28T01:16:48;17.20;99.90
1083;DHT22;530;51.448;7.238;2023-07-28T01:19:16;17.20;99.90
1083;DHT22;530;51.448;7.238;2023-07-28T01:21:45;17.20;99.90
1083;DHT22;530;51.448;7.238;2023-07-28T01:24:25;17.20;99.90
1083;DHT22;530;51.448;7.238;2023-07-28T01:26:54;17.20;99.90
1083;DHT22;530;51.448;7.238;2023-07-28T01:29:20;17.20;99.90
1083;DHT22;530;51.448;7.238;2023-07-28T01:31:47;17.20;99.90
1083;DHT22;530;51.448;7.238;2023-07-28T01:34:13;17.30;99.90
1083;DHT22;530;51.448;7.238;2023-07-28T01:36:39;17.30;99.90
1083;DHT22;530;51.448;7.238;2023-07-28T01:39:04;17.30;99.90
1083;DHT22;530;51.448;7.238;2023-07-28T01:41:30;17.30;99.90
1083;DHT22;530;51.448;7.238;2023-07-28T01:43:56;17.30;99.90
1083;DHT22;530;51.448;7.238;2023-07-28T01:46:22;17.30;99.90
1083;DHT22;530;51.448;7.238;2023-07-28T01:48:48;17.30;99.90
1083;DHT22;530;51.448;7.238;2023-07-28T01:51:13;17.30;99.90
1083;DHT22;530;51.448;7.238;2023-07-28T01:53:39;17.40;99.90
1083;DHT22;530;51.448;7.238;2023-07-28T01:56:05;17.40;99.90
1083;DHT22;530;51.448;7.238;2023-07-28T01:58:30;17.40;99.90
1083;DHT22;530;51.448;7.238;2023-07-28T02:00:56;17.30;99.90
1083;DHT22;530;51.448;7.238;2023-07-28T02:03:22;17.30;99.90
1083;DHT22;530;51.448;7.238;2023-07-28T02:05:48;17.30;99.90
1083;DHT22;530;51.448;7.238;2023-07-28T02:08:14;17.30;99.90
1083;DHT22;530;51.448;7.238;2023-07-28T02:10:39;17.30;99.90
1083;DHT22;530;51.448;7.238;2023-07-28T02:13:05;17.30;99.90
1083;DHT22;530;51.448;7.238;2023-07-28T02:15:31;17.40;99.90
1083;DHT22;530;51.448;7.238;2023-07-28T02:17:56;17.30;99.90
1083;DHT22;530;51.448;7.238;2023-07-28T02:20:22;17.30;99.90
1083;DHT22;530;51.448;7.238;2023-07-28T02:22:48;17.40;99.90
1083;DHT22;530;51.448;7.238;2023-07-28T02:25:13;17.30;99.90
1083;DHT22;530;51.448;7.238;2023-07-28T02:27:39;17.30;99.90
1083;DHT22;530;51.448;7.238;2023-07-28T02:30:06;17.30;99.90
1083;DHT22;530;51.448;7.238;2023-07-28T02:32:32;17.20;99.90
1083;DHT22;530;51.448;7.238;2023-07-28T02:34:58;17.30;99.90
1083;DHT22;530;51.448;7.238;2023-07-28T02:37:24;17.30;99.90
1083;DHT22;530;51.448;7.238;2023-07-28T02:39:50;17.30;99.90
1083;DHT22;530;51.448;7.238;2023-07-28T02:42:15;17.30;99.90
1083;DHT22;530;51.448;7.238;2023-07-28T02:44:41;17.20;99.90
1083;DHT22;530;51.448;7.238;2023-07-28T02:47:07;17.30;99.90
1083;DHT22;530;51.448;7.238;2023-07-28T02:49:32;17.20;99.90
1083;DHT22;530;51.448;7.238;2023-07-28T02:51:58;17.30;99.90
1083;DHT22;530;51.448;7.238;2023-07-28T02:54:24;17.30;99.90
1083;DHT22;530;51.448;7.238;2023-07-28T02:56:51;17.30;99.90
1083;DHT22;530;51.448;7.238;2023-07-28T02:59:16;17.30;99.90
1083;DHT22;530;51.448;7.238;2023-07-28T03:01:42;17.30;99.90
1083;DHT22;530;51.448;7.238;2023-07-28T03:04:08;17.40;99.90
1083;DHT22;530;51.448;7.238;2023-07-28T03:06:33;17.30;99.90
1083;DHT22;530;51.448;7.238;2023-07-28T03:08:59;17.30;99.90
1083;DHT22;530;51.448;7.238;2023-07-28T03:11:25;17.40;99.90
1083;DHT22;530;51.448;7.238;2023-07-28T03:13:50;17.30;99.90
1083;DHT22;530;51.448;7.238;2023-07-28T03:16:16;17.30;99.90
1083;DHT22;530;51.448;7.238;2023-07-28T03:18:42;17.30;99.90
1083;DHT22;530;51.448;7.238;2023-07-28T03:21:11;17.30;99.90
1083;DHT22;530;51.448;7.238;2023-07-28T03:23:37;17.30;99.90
1083;DHT22;530;51.448;7.238;2023-07-28T03:26:02;17.40;99.90
1083;DHT22;530;51.448;7.238;2023-07-28T03:28:28;17.30;99.90
1083;DHT22;530;51.448;7.238;2023-07-28T03:30:54;17.40;99.90
1083;DHT22;530;51.448;7.238;2023-07-28T03:33:19;17.40;99.90
1083;DHT22;530;51.448;7.238;2023-07-28T03:35:45;17.40;99.90
1083;DHT22;530;51.448;7.238;2023-07-28T03:38:11;17.40;99.90
1083;DHT22;530;51.448;7.238;2023-07-28T03:40:36;17.40;99.90
1083;DHT22;530;51.448;7.238;2023-07-28T03:43:02;17.40;99.90
1083;DHT22;530;51.448;7.238;2023-07-28T03:45:28;17.40;99.90
1083;DHT22;530;51.448;7.238;2023-07-28T03:47:54;17.40;99.90
1083;DHT22;530;51.448;7.238;2023-07-28T03:50:20;17.40;99.90
1083;DHT22;530;51.448;7.238;2023-07-28T03:52:45;17.40;99.90
1083;DHT22;530;51.448;7.238;2023-07-28T03:55:11;17.30;99.90
1083;DHT22;530;51.448;7.238;2023-07-28T03:57:37;17.30;99.90
1083;DHT22;530;51.448;7.238;2023-07-28T04:00:03;17.30;99.90
1083;DHT22;530;51.448;7.238;2023-07-28T04:02:29;17.30;99.90
1083;DHT22;530;51.448;7.238;2023-07-28T04:04:55;17.40;99.90
1083;DHT22;530;51.448;7.238;2023-07-28T04:07:21;17.40;99.90
1083;DHT22;530;51.448;7.238;2023-07-28T04:09:47;17.40;99.90
1083;DHT22;530;51.448;7.238;2023-07-28T04:12:13;17.40;99.90
1083;DHT22;530;51.448;7.238;2023-07-28T04:14:38;17.40;99.90
1083;DHT22;530;51.448;7.238;2023-07-28T04:17:04;17.40;99.90
1083;DHT22;530;51.448;7.238;2023-07-28T04:19:30;17.40;99.90
1083;DHT22;530;51.448;7.238;2023-07-28T04:22:00;17.40;99.90
1083;DHT22;530;51.448;7.238;2023-07-28T04:24:26;17.40;99.90
1083;DHT22;530;51.448;7.238;2023-07-28T04:26:52;17.40;99.90
1083;DHT22;530;51.448;7.238;2023-07-28T04:29:18;17.40;99.90
1083;DHT22;530;51.448;7.238;2023-07-28T04:31:44;17.40;99.90
1083;DHT22;530;51.448;7.238;2023-07-28T04:34:10;17.40;99.90
1083;DHT22;530;51.448;7.238;2023-07-28T04:36:35;17.40;99.90
1083;DHT22;530;51.448;7.238;2023-07-28T04:39:01;17.50;99.90
1083;DHT22;530;51.448;7.238;2023-07-28T04:41:27;17.50;99.90
1083;DHT22;530;51.448;7.238;2023-07-28T04:43:52;17.50;99.90
1083;DHT22;530;51.448;7.238;2023-07-28T04:46:18;17.40;99.90
1083;DHT22;530;51.448;7.238;2023-07-28T04:48:45;17.50;99.90
1083;DHT22;530;51.448;7.238;2023-07-28T04:51:11;17.50;99.90
1083;DHT22;530;51.448;7.238;2023-07-28T04:53:36;17.50;99.90
1083;DHT22;530;51.448;7.238;2023-07-28T04:56:02;17.50;99.90
1083;DHT22;530;51.448;7.238;2023-07-28T04:58:29;17.50;99.90
1083;DHT22;530;51.448;7.238;2023-07-28T05:00:54;17.50;99.90
1083;DHT22;530;51.448;7.238;2023-07-28T05:03:20;17.50;99.90
1083;DHT22;530;51.448;7.238;2023-07-28T05:05:46;17.60;99.90
1083;DHT22;530;51.448;7.238;2023-07-28T05:08:11;17.60;99.90
1083;DHT22;530;51.448;7.238;2023-07-28T05:10:37;17.60;99.90
1083;DHT22;530;51.448;7.238;2023-07-28T05:13:03;17.60;99.90
1083;DHT22;530;51.448;7.238;2023-07-28T05:15:31;17.60;99.90
1083;DHT22;530;51.448;7.238;2023-07-28T05:17:57;17.60;99.90
1083;DHT22;530;51.448;7.238;2023-07-28T05:20:22;17.70;99.90
1083;DHT22;530;51.448;7.238;2023-07-28T05:22:48;17.60;99.90
1083;DHT22;530;51.448;7.238;2023-07-28T05:25:14;17.70;99.90
1083;DHT22;530;51.448;7.238;2023-07-28T05:27:40;17.70;99.90
1083;DHT22;530;51.448;7.238;2023-07-28T05:30:06;17.70;99.90
1083;DHT22;530;51.448;7.238;2023-07-28T05:32:32;17.70;99.90
1083;DHT22;530;51.448;7.238;2023-07-28T05:34:57;17.70;99.90
1083;DHT22;530;51.448;7.238;2023-07-28T05:37:24;17.70;99.90
1083;DHT22;530;51.448;7.238;2023-07-28T05:39:49;17.80;99.90
1083;DHT22;530;51.448;7.238;2023-07-28T05:42:15;17.80;99.90
1083;DHT22;530;51.448;7.238;2023-07-28T05:44:41;17.80;99.90
1083;DHT22;530;51.448;7.238;2023-07-28T05:47:06;17.90;99.90
1083;DHT22;530;51.448;7.238;2023-07-28T05:49:32;17.90;99.90
1083;DHT22;530;51.448;7.238;2023-07-28T05:51:58;17.90;99.90
1083;DHT22;530;51.448;7.238;2023-07-28T05:54:23;17.90;99.90
1083;DHT22;530;51.448;7.238;2023-07-28T05:56:49;17.90;99.90
1083;DHT22;530;51.448;7.238;2023-07-28T05:59:15;18.00;99.90
1083;DHT22;530;51.448;7.238;2023-07-28T06:01:41;18.00;99.90
1083;DHT22;530;51.448;7.238;2023-07-28T06:04:07;18.00;99.90
1083;DHT22;530;51.448;7.238;2023-07-28T06:06:32;18.00;99.90
1083;DHT22;530;51.448;7.238;2023-07-28T06:08:58;18.00;99.90
1083;DHT22;530;51.448;7.238;2023-07-28T06:11:24;18.00;99.90
1083;DHT22;530;51.448;7.238;2023-07-28T06:13:50;18.10;99.90
1083;DHT22;530;51.448;7.238;2023-07-28T06:16:16;18.00;99.90
1083;DHT22;530;51.448;7.238;2023-07-28T06:18:42;18.00;99.90
1083;DHT22;530;51.448;7.238;2023-07-28T06:21:07;18.00;99.90
1083;DHT22;530;51.448;7.238;2023-07-28T06:23:33;18.00;99.90
1083;DHT22;530;51.448;7.238;2023-07-28T06:25:59;18.00;99.90
1083;DHT22;530;51.448;7.238;2023-07-28T06:28:25;18.00;99.90
1083;DHT22;530;51.448;7.238;2023-07-28T06:30:57;17.90;99.90
1083;DHT22;530;51.448;7.238;2023-07-28T06:33:24;18.00;99.90
1083;DHT22;530;51.448;7.238;2023-07-28T06:35:50;17.90;99.90
1083;DHT22;530;51.448;7.238;2023-07-28T06:38:17;17.90;99.90
1083;DHT22;530;51.448;7.238;2023-07-28T06:40:43;18.00;99.90
1083;DHT22;530;51.448;7.238;2023-07-28T06:43:09;18.00;99.90
1083;DHT22;530;51.448;7.238;2023-07-28T06:45:34;18.00;99.90
1083;DHT22;530;51.448;7.238;2023-07-28T06:48:00;18.00;99.90
1083;DHT22;530;51.448;7.238;2023-07-28T06:50:26;18.00;99.90
1083;DHT22;530;51.448;7.238;2023-07-28T06:52:52;18.00;99.90
1083;DHT22;530;51.448;7.238;2023-07-28T06:55:18;18.10;99.90
1083;DHT22;530;51.448;7.238;2023-07-28T06:57:44;18.00;99.90
1083;DHT22;530;51.448;7.238;2023-07-28T07:00:10;18.00;99.90
1083;DHT22;530;51.448;7.238;2023-07-28T07:02:36;18.00;99.90
1083;DHT22;530;51.448;7.238;2023-07-28T07:05:02;18.10;99.90
1083;DHT22;530;51.448;7.238;2023-07-28T07:07:28;18.00;99.90
1083;DHT22;530;51.448;7.238;2023-07-28T07:09:53;18.00;99.90
1083;DHT22;530;51.448;7.238;2023-07-28T07:12:19;18.10;99.90
1083;DHT22;530;51.448;7.238;2023-07-28T07:14:47;18.10;99.90
1083;DHT22;530;51.448;7.238;2023-07-28T07:17:13;18.10;99.90
1083;DHT22;530;51.448;7.238;2023-07-28T07:19:38;18.10;99.90
1083;DHT22;530;51.448;7.238;2023-07-28T07:22:05;18.20;99.90
1083;DHT22;530;51.448;7.238;2023-07-28T07:24:31;18.10;99.90
1083;DHT22;530;51.448;7.238;2023-07-28T07:26:57;18.20;99.90
1083;DHT22;530;51.448;7.238;2023-07-28T07:29:23;18.20;99.90
1083;DHT22;530;51.448;7.238;2023-07-28T07:31:48;18.10;99.90
1083;DHT22;530;51.448;7.238;2023-07-28T07:34:14;18.20;99.90
1083;DHT22;530;51.448;7.238;2023-07-28T07:36:40;18.20;99.90
1083;DHT22;530;51.448;7.238;2023-07-28T07:39:06;18.20;99.90
1083;DHT22;530;51.448;7.238;2023-07-28T07:41:31;18.20;99.90
1083;DHT22;530;51.448;7.238;2023-07-28T07:43:57;18.20;99.90
1083;DHT22;530;51.448;7.238;2023-07-28T07:46:23;18.30;99.90
1083;DHT22;530;51.448;7.238;2023-07-28T07:48:49;18.30;99.90
1083;DHT22;530;51.448;7.238;2023-07-28T07:51:16;18.40;99.90
1083;DHT22;530;51.448;7.238;2023-07-28T07:53:42;18.40;99.90
1083;DHT22;530;51.448;7.238;2023-07-28T07:56:08;18.50;99.90
1083;DHT22;530;51.448;7.238;2023-07-28T07:58:34;18.50;99.90
1083;DHT22;530;51.448;7.238;2023-07-28T08:01:00;18.50;99.90
1083;DHT22;530;51.448;7.238;2023-07-28T08:03:26;18.50;99.90
1083;DHT22;530;51.448;7.238;2023-07-28T08:05:52;18.50;99.90
1083;DHT22;530;51.448;7.238;2023-07-28T08:08:18;18.50;99.90
1083;DHT22;530;51.448;7.238;2023-07-28T08:10:46;18.50;99.90
1083;DHT22;530;51.448;7.238;2023-07-28T08:13:12;18.60;99.90
1083;DHT22;530;51.448;7.238;2023-07-28T08:15:38;18.60;99.90
1083;DHT22;530;51.448;7.238;2023-07-28T08:18:04;18.70;99.90
1083;DHT22;530;51.448;7.238;2023-07-28T08:20:29;18.70;99.90
1083;DHT22;530;51.448;7.238;2023-07-28T08:22:55;18.70;99.90
1083;DHT22;530;51.448;7.238;2023-07-28T08:25:21;18.70;99.90
1083;DHT22;530;51.448;7.238;2023-07-28T08:27:48;18.80;99.90
1083;DHT22;530;51.448;7.238;2023-07-28T08:30:14;18.80;99.90
1083;DHT22;530;51.448;7.238;2023-07-28T08:32:41;18.80;99.90
1083;DHT22;530;51.448;7.238;2023-07-28T08:35:07;18.90;99.90
1083;DHT22;530;51.448;7.238;2023-07-28T08:37:33;19.00;99.90
1083;DHT22;530;51.448;7.238;2023-07-28T08:39:59;19.00;99.90
1083;DHT22;530;51.448;7.238;2023-07-28T08:42:25;19.00;99.90
1083;DHT22;530;51.448;7.238;2023-07-28T08:44:50;19.00;99.90
1083;DHT22;530;51.448;7.238;2023-07-28T08:47:18;19.00;99.90
1083;DHT22;530;51.448;7.238;2023-07-28T08:49:44;19.00;99.90
1083;DHT22;530;51.448;7.238;2023-07-28T08:52:10;19.00;99.90
1083;DHT22;530;51.448;7.238;2023-07-28T08:54:36;19.00;99.90
1083;DHT22;530;51.448;7.238;2023-07-28T08:57:02;19.00;99.90
1083;DHT22;530;51.448;7.238;2023-07-28T08:59:29;19.00;99.90
1083;DHT22;530;51.448;7.238;2023-07-28T09:01:57;19.00;99.90
1083;DHT22;530;51.448;7.238;2023-07-28T09:04:26;19.10;99.90
1083;DHT22;530;51.448;7.238;2023-07-28T09:06:52;19.00;99.90
1083;DHT22;530;51.448;7.238;2023-07-28T09:09:20;19.10;99.90
1083;DHT22;530;51.448;7.238;2023-07-28T09:11:49;19.10;99.90
1083;DHT22;530;51.448;7.238;2023-07-28T09:14:18;19.10;99.90
1083;DHT22;530;51.448;7.238;2023-07-28T09:16:45;19.20;99.90
1083;DHT22;530;51.448;7.238;2023-07-28T09:19:11;19.20;99.90
1083;DHT22;530;51.448;7.238;2023-07-28T09:21:39;19.20;99.90
1083;DHT22;530;51.448;7.238;2023-07-28T09:24:10;19.20;99.90
1083;DHT22;530;51.448;7.238;2023-07-28T09:26:43;19.30;99.90
1083;DHT22;530;51.448;7.238;2023-07-28T09:29:22;19.40;99.90
1083;DHT22;530;51.448;7.238;2023-07-28T09:31:49;19.40;99.90
1083;DHT22;530;51.448;7.238;2023-07-28T09:34:26;19.40;99.90
1083;DHT22;530;51.448;7.238;2023-07-28T09:36:56;19.40;99.90
1083;DHT22;530;51.448;7.238;2023-07-28T09:39:22;19.50;99.90
1083;DHT22;530;51.448;7.238;2023-07-28T09:41:48;19.60;99.90
1083;DHT22;530;51.448;7.238;2023-07-28T09:44:14;19.80;99.90
1083;DHT22;530;51.448;7.238;2023-07-28T09:46:55;19.90;99.90
1083;DHT22;530;51.448;7.238;2023-07-28T09:49:35;20.00;99.90
1083;DHT22;530;51.448;7.238;2023-07-28T09:52:08;20.00;99.90
1083;DHT22;530;51.448;7.238;2023-07-28T09:54:40;20.00;99.90
1083;DHT22;530;51.448;7.238;2023-07-28T09:57:14;20.00;99.90
1083;DHT22;530;51.448;7.238;2023-07-28T09:59:45;20.00;99.90
1083;DHT22;530;51.448;7.238;2023-07-28T10:02:12;20.10;99.90
1083;DHT22;530;51.448;7.238;2023-07-28T10:04:38;20.20;99.90
1083;DHT22;530;51.448;7.238;2023-07-28T10:07:05;20.30;99.90
1083;DHT22;530;51.448;7.238;2023-07-28T10:09:33;20.30;99.90
1083;DHT22;530;51.448;7.238;2023-07-28T10:12:00;20.40;99.90
1083;DHT22;530;51.448;7.238;2023-07-28T10:14:33;20.40;99.90
1083;DHT22;530;51.448;7.238;2023-07-28T10:17:00;20.40;99.90
1083;DHT22;530;51.448;7.238;2023-07-28T10:19:36;20.30;99.90
1083;DHT22;530;51.448;7.238;2023-07-28T10:22:09;20.30;99.90
1083;DHT22;530;51.448;7.238;2023-07-28T10:24:55;20.20;99.90
1083;DHT22;530;51.448;7.238;2023-07-28T10:27:45;20.30;99.90
1083;DHT22;530;51.448;7.238;2023-07-28T10:30:14;20.30;99.90
1083;DHT22;530;51.448;7.238;2023-07-28T10:32:43;20.30;99.90
1083;DHT22;530;51.448;7.238;2023-07-28T10:35:27;20.30;99.90
1083;DHT22;530;51.448;7.238;2023-07-28T10:37:55;20.30;99.90
1083;DHT22;530;51.448;7.238;2023-07-28T10:42:50;20.40;99.90
1083;DHT22;530;51.448;7.238;2023-07-28T10:45:16;20.40;99.90
1083;DHT22;530;51.448;7.238;2023-07-28T10:47:43;20.50;99.90
1083;DHT22;530;51.448;7.238;2023-07-28T10:50:09;20.50;99.90
1083;DHT22;530;51.448;7.238;2023-07-28T10:52:40;20.70;99.90
1083;DHT22;530;51.448;7.238;2023-07-28T10:55:18;20.60;99.90
1083;DHT22;530;51.448;7.238;2023-07-28T10:57:46;20.60;99.90
1083;DHT22;530;51.448;7.238;2023-07-28T11:00:14;20.70;99.90
1083;DHT22;530;51.448;7.238;2023-07-28T11:02:48;20.70;99.90
1083;DHT22;530;51.448;7.238;2023-07-28T11:05:20;20.80;99.90
1083;DHT22;530;51.448;7.238;2023-07-28T11:07:47;20.80;99.90
1083;DHT22;530;51.448;7.238;2023-07-28T11:10:14;20.80;99.90
1083;DHT22;530;51.448;7.238;2023-07-28T11:12:44;20.80;99.90
1083;DHT22;530;51.448;7.238;2023-07-28T11:15:11;20.70;99.90
1083;DHT22;530;51.448;7.238;2023-07-28T11:17:39;20.70;99.90
1083;DHT22;530;51.448;7.238;2023-07-28T11:20:18;20.60;99.90
1083;DHT22;530;51.448;7.238;2023-07-28T11:22:46;20.70;99.90
1083;DHT22;530;51.448;7.238;2023-07-28T11:25:12;20.80;99.90
1083;DHT22;530;51.448;7.238;2023-07-28T11:27:39;20.90;99.90
1083;DHT22;530;51.448;7.238;2023-07-28T11:30:07;21.00;99.90
1083;DHT22;530;51.448;7.238;2023-07-28T11:32:36;21.10;99.90
1083;DHT22;530;51.448;7.238;2023-07-28T11:35:06;21.20;99.90
1083;DHT22;530;51.448;7.238;2023-07-28T11:37:36;21.30;99.90
1083;DHT22;530;51.448;7.238;2023-07-28T11:40:04;21.20;99.90
1083;DHT22;530;51.448;7.238;2023-07-28T11:42:40;21.20;99.90
1083;DHT22;530;51.448;7.238;2023-07-28T11:45:06;21.20;99.90
1083;DHT22;530;51.448;7.238;2023-07-28T11:47:32;21.10;99.90
1083;DHT22;530;51.448;7.238;2023-07-28T11:49:58;21.10;99.90
1083;DHT22;530;51.448;7.238;2023-07-28T11:52:32;21.00;99.90
1083;DHT22;530;51.448;7.238;2023-07-28T11:55:01;21.00;99.90
1083;DHT22;530;51.448;7.238;2023-07-28T11:57:29;20.90;99.90
1083;DHT22;530;51.448;7.238;2023-07-28T11:59:57;20.90;99.90
1083;DHT22;530;51.448;7.238;2023-07-28T12:02:30;20.90;99.90
1083;DHT22;530;51.448;7.238;2023-07-28T12:04:56;20.90;99.90
1083;DHT22;530;51.448;7.238;2023-07-28T12:07:32;20.90;99.90
1083;DHT22;530;51.448;7.238;2023-07-28T12:10:06;20.90;99.90
1083;DHT22;530;51.448;7.238;2023-07-28T12:12:46;21.00;99.90
1083;DHT22;530;51.448;7.238;2023-07-28T12:20:43;20.90;99.90
1083;DHT22;530;51.448;7.238;2023-07-28T12:23:19;21.00;99.90
1083;DHT22;530;51.448;7.238;2023-07-28T12:25:46;21.00;99.90
1083;DHT22;530;51.448;7.238;2023-07-28T12:28:12;21.00;99.90
1083;DHT22;530;51.448;7.238;2023-07-28T12:30:38;21.00;99.90
1083;DHT22;530;51.448;7.238;2023-07-28T12:33:05;21.10;99.90
1083;DHT22;530;51.448;7.238;2023-07-28T12:35:32;21.10;99.90
1083;DHT22;530;51.448;7.238;2023-07-28T12:38:01;21.20;99.90
1083;DHT22;530;51.448;7.238;2023-07-28T12:40:27;21.40;99.90
1083;DHT22;530;51.448;7.238;2023-07-28T12:42:55;21.50;99.90
1083;DHT22;530;51.448;7.238;2023-07-28T12:45:21;21.60;99.90
1083;DHT22;530;51.448;7.238;2023-07-28T12:47:47;21.70;99.90
1083;DHT22;530;51.448;7.238;2023-07-28T12:50:12;21.80;99.90
1083;DHT22;530;51.448;7.238;2023-07-28T12:52:38;21.90;99.90
1083;DHT22;530;51.448;7.238;2023-07-28T12:55:04;22.00;99.90
1083;DHT22;530;51.448;7.238;2023-07-28T12:57:31;22.20;99.90
1083;DHT22;530;51.448;7.238;2023-07-28T12:59:56;22.20;99.90
1083;DHT22;530;51.448;7.238;2023-07-28T13:02:22;22.30;99.90
1083;DHT22;530;51.448;7.238;2023-07-28T13:04:48;22.30;99.90
1083;DHT22;530;51.448;7.238;2023-07-28T13:07:13;22.40;99.90
1083;DHT22;530;51.448;7.238;2023-07-28T13:09:39;22.40;99.90
1083;DHT22;530;51.448;7.238;2023-07-28T13:12:07;22.50;99.90
1083;DHT22;530;51.448;7.238;2023-07-28T13:14:33;22.50;99.90
1083;DHT22;530;51.448;7.238;2023-07-28T13:16:59;22.50;99.90
1083;DHT22;530;51.448;7.238;2023-07-28T13:19:25;22.50;99.90
1083;DHT22;530;51.448;7.238;2023-07-28T13:21:51;22.50;99.90
1083;DHT22;530;51.448;7.238;2023-07-28T13:24:16;22.50;99.90
1083;DHT22;530;51.448;7.238;2023-07-28T13:26:42;22.60;99.90
1083;DHT22;530;51.448;7.238;2023-07-28T13:29:08;22.60;99.90
1083;DHT22;530;51.448;7.238;2023-07-28T13:31:33;22.60;99.90
1083;DHT22;530;51.448;7.238;2023-07-28T13:33:59;22.60;99.90
1083;DHT22;530;51.448;7.238;2023-07-28T13:36:25;22.60;99.90
1083;DHT22;530;51.448;7.238;2023-07-28T13:38:50;22.50;99.90
1083;DHT22;530;51.448;7.238;2023-07-28T13:41:16;22.40;99.90
1083;DHT22;530;51.448;7.238;2023-07-28T13:43:42;22.40;99.90
1083;DHT22;530;51.448;7.238;2023-07-28T13:46:07;22.50;99.90
1083;DHT22;530;51.448;7.238;2023-07-28T13:48:34;22.60;99.90
1083;DHT22;530;51.448;7.238;2023-07-28T13:51:02;22.70;99.90
1083;DHT22;530;51.448;7.238;2023-07-28T13:53:27;22.70;99.90
1083;DHT22;530;51.448;7.238;2023-07-28T13:55:54;22.80;99.90
1083;DHT22;530;51.448;7.238;2023-07-28T13:58:20;22.80;99.90
1083;DHT22;530;51.448;7.238;2023-07-28T14:00:46;22.90;99.90
1083;DHT22;530;51.448;7.238;2023-07-28T14:03:12;22.80;99.90
1083;DHT22;530;51.448;7.238;2023-07-28T14:05:38;22.80;99.90
1083;DHT22;530;51.448;7.238;2023-07-28T14:08:04;22.80;99.90
1083;DHT22;530;51.448;7.238;2023-07-28T14:10:30;22.60;99.90
1083;DHT22;530;51.448;7.238;2023-07-28T14:12:58;22.60;99.90
1083;DHT22;530;51.448;7.238;2023-07-28T14:15:23;22.50;99.90
1083;DHT22;530;51.448;7.238;2023-07-28T14:17:49;22.50;99.90
1083;DHT22;530;51.448;7.238;2023-07-28T14:20:15;22.50;99.90
1083;DHT22;530;51.448;7.238;2023-07-28T14:22:40;22.40;99.90
1083;DHT22;530;51.448;7.238;2023-07-28T14:25:06;22.30;99.90
1083;DHT22;530;51.448;7.238;2023-07-28T14:27:32;22.30;99.90
1083;DHT22;530;51.448;7.238;2023-07-28T14:29:58;22.30;99.90
1083;DHT22;530;51.448;7.238;2023-07-28T14:32:23;22.30;99.90
1083;DHT22;530;51.448;7.238;2023-07-28T14:34:49;22.30;99.90
1083;DHT22;530;51.448;7.238;2023-07-28T14:37:15;22.30;99.90
1083;DHT22;530;51.448;7.238;2023-07-28T14:39:41;22.20;99.90
1083;DHT22;530;51.448;7.238;2023-07-28T14:42:06;22.10;99.90
1083;DHT22;530;51.448;7.238;2023-07-28T14:44:32;22.10;99.90
1083;DHT22;530;51.448;7.238;2023-07-28T14:46:58;22.00;99.90
1083;DHT22;530;51.448;7.238;2023-07-28T14:49:23;21.90;99.90
1083;DHT22;530;51.448;7.238;2023-07-28T14:51:56;21.90;99.90
1083;DHT22;530;51.448;7.238;2023-07-28T14:54:21;21.80;99.90
1083;DHT22;530;51.448;7.238;2023-07-28T14:56:47;21.80;99.90
1083;DHT22;530;51.448;7.238;2023-07-28T14:59:13;21.80;99.90
1083;DHT22;530;51.448;7.238;2023-07-28T15:01:39;21.90;99.90
1083;DHT22;530;51.448;7.238;2023-07-28T15:04:04;22.00;99.90
1083;DHT22;530;51.448;7.238;2023-07-28T15:06:31;22.00;99.90
1083;DHT22;530;51.448;7.238;2023-07-28T15:08:57;22.00;99.90
1083;DHT22;530;51.448;7.238;2023-07-28T15:11:22;22.00;99.90
1083;DHT22;530;51.448;7.238;2023-07-28T15:13:49;22.10;99.90
1083;DHT22;530;51.448;7.238;2023-07-28T15:16:15;22.10;99.90
1083;DHT22;530;51.448;7.238;2023-07-28T15:18:42;22.10;99.90
1083;DHT22;530;51.448;7.238;2023-07-28T15:21:08;22.10;99.90
1083;DHT22;530;51.448;7.238;2023-07-28T15:23:33;22.10;99.90
1083;DHT22;530;51.448;7.238;2023-07-28T15:26:00;22.00;99.90
1083;DHT22;530;51.448;7.238;2023-07-28T15:28:26;22.00;99.90
1083;DHT22;530;51.448;7.238;2023-07-28T15:30:51;22.00;99.90
1083;DHT22;530;51.448;7.238;2023-07-28T15:33:20;22.00;99.90
1083;DHT22;530;51.448;7.238;2023-07-28T15:35:46;21.90;99.90
1083;DHT22;530;51.448;7.238;2023-07-28T15:38:13;21.90;99.90
1083;DHT22;530;51.448;7.238;2023-07-28T15:40:39;22.00;99.90
1083;DHT22;530;51.448;7.238;2023-07-28T15:43:05;21.90;99.90
1083;DHT22;530;51.448;7.238;2023-07-28T15:45:31;22.00;99.90
1083;DHT22;530;51.448;7.238;2023-07-28T15:47:57;21.90;99.90
1083;DHT22;530;51.448;7.238;2023-07-28T15:50:22;21.90;99.90
1083;DHT22;530;51.448;7.238;2023-07-28T15:52:48;21.90;99.90
1083;DHT22;530;51.448;7.238;2023-07-28T15:55:16;21.80;99.90
1083;DHT22;530;51.448;7.238;2023-07-28T15:57:41;21.90;99.90
1083;DHT22;530;51.448;7.238;2023-07-28T16:00:07;21.80;99.90
1083;DHT22;530;51.448;7.238;2023-07-28T16:02:35;21.70;99.90
1083;DHT22;530;51.448;7.238;2023-07-28T16:05:01;21.70;99.90
1083;DHT22;530;51.448;7.238;2023-07-28T16:07:27;21.70;99.90
1083;DHT22;530;51.448;7.238;2023-07-28T16:09:55;21.70;99.90
1083;DHT22;530;51.448;7.238;2023-07-28T16:12:21;21.70;99.90
1083;DHT22;530;51.448;7.238;2023-07-28T16:14:47;21.60;99.90
1083;DHT22;530;51.448;7.238;2023-07-28T16:17:12;21.60;99.90
1083;DHT22;530;51.448;7.238;2023-07-28T16:19:39;21.60;99.90
1083;DHT22;530;51.448;7.238;2023-07-28T16:22:05;21.60;99.90
1083;DHT22;530;51.448;7.238;2023-07-28T16:24:31;21.60;99.90